الصفحة الرئيسية
METAR-TAF:

METAR-TAF

مطار :

Foz do Iguaçu, بارانا, البرازيل

دائرة عرض: 25-31S, خط طول: 054-35W, ارتفاع: 180 متر

مراقبة الطقس الحالي

تاريخ ووقت الإصدار 1ساعة و 6 دقيقة قبل الساعة 09:00UTC
ريح 7 عقدة من الشمال الشرقي
درجة الحرارة 24°درجة مئوية
الرطوبة 78%
ضغط 1009 hPa
الرؤية 10 كم أو أكثر
الغيوم لا تقل 1500 م ولا وجود لمزنة ركامية السحاب الأسود

METAR: SBFI 140900Z 05007KT CAVOK 24/20 Q1009

زمن: 08:06 (10:06 UTC)

توقعات

تاريخ ووقت الإصدار 8ساعات و 6 دقيقة قبل الساعة 02:00UTC
التوقعات صالحة من14 الساعة 06 UTC إلى 15 الساعة 06 UTC
ريح 5 عقدة من الشرق/الشمال الشرقي
الرؤية 10 كم أو أكثر
الغيوم لا تقل 1500 م ولا وجود لمزنة ركامية السحاب الأسود
أصبح
من 14 الساعة 12 UTC إلى 14 الساعة 14 UTC
ريح 10 عقدة من الشمال
الرؤية 10 كم أو أكثر
غيوم قليلة على ارتفاع 4000 قدم
أصبح
من 14 الساعة 21 UTC إلى 14 الساعة 23 UTC
ريح 5 عقدة من الشرق/الشمال الشرقي
الرؤية 10 كم أو أكثر
الغيوم لا تقل 1500 م ولا وجود لمزنة ركامية السحاب الأسود

TAF: SBFI 140200Z 1406/1506 06005KT CAVOK TN24/1408Z TX36/1418Z BECMG 1412/1414 01010KT 9999 FEW040 BECMG 1421/1423 06005KT CAVOK RMK PDW

أرصاد الطقس والتوقعات من أكثر من 4000 مطار (تقارير الطقس للمطار METAR والتنبؤ بالطقس بالمطارTAF).

المحطات المتاحة هي النقط الصفراء والحمراء على الخريطة.

حرك المؤشر فوق النقطة لمعرفة اسم المحطة.

ثم انقر لمعرفة أرصاد وتوقعات الطقس.

لتغيير الخارطة: اضغط على الأزرار الخضراء مع رمز الصليب الأسود للتكبير. على الزر الأخضر مع شرطة للتصغير، أو على الأسهم الخضراء للخرائط المجاورة.


METAR-TAF: